Time;durP1;ratioP1;P1;durP2;ratioP2;P2;SDS_P1;SDS_P2;PMS_P1;PMS_P2;Temp;Humidity;BMP_temperature;BMP_pressure;BME280_temperature;BME280_humidity;BME280_pressure;Samples;Min_cycle;Max_cycle;Signal;HPM_P1;HPM_P2
2023/04/17 00:02:09;;;;;;;60.38;32.47;;;;;;;;;;5031991;28;20037;-39
2023/04/17 00:04:36;;;;;;;59.45;31.63;;;8.10;99.90;;;;;;5036586;28;20108;-39
2023/04/17 00:07:02;;;;;;;58.95;31.75;;;;;;;;;;5033429;28;20065;-40
2023/04/17 00:09:29;;;;;;;57.50;30.65;;;8.30;99.90;;;;;;5029102;28;20491;-40
2023/04/17 00:11:55;;;;;;;54.90;30.05;;;;;;;;;;5034856;28;20052;-40
2023/04/17 00:14:21;;;;;;;55.10;30.02;;;8.40;99.90;;;;;;5035008;28;20056;-41
2023/04/17 00:16:47;;;;;;;55.33;30.92;;;;;;;;;;5021991;28;20041;-40
2023/04/17 00:19:13;;;;;;;57.55;31.00;;;8.10;99.90;;;;;;5033367;28;20040;-40
2023/04/17 00:21:38;;;;;;;62.83;30.80;;;8.10;99.90;;;;;;5028948;28;20501;-40
2023/04/17 00:24:04;;;;;;;60.72;31.40;;;8.20;99.90;;;;;;5027677;28;20800;-39
2023/04/17 00:26:33;;;;;;;58.25;31.85;;;;;;;;;;5035484;28;20124;-40
2023/04/17 00:29:00;;;;;;;56.53;31.08;;;8.10;99.90;;;;;;5030996;28;20053;-39
2023/04/17 00:31:26;;;;;;;56.85;30.75;;;;;;;;;;5041359;28;20076;-40
2023/04/17 00:33:51;;;;;;;53.75;30.40;;;8.40;99.90;;;;;;5019041;28;20045;-40
2023/04/17 00:36:17;;;;;;;51.60;29.23;;;7.70;99.90;;;;;;5031886;28;20052;-40
2023/04/17 00:38:43;;;;;;;53.85;30.05;;;7.90;99.90;;;;;;5037977;28;20037;-39
2023/04/17 00:41:09;;;;;;;53.67;30.13;;;8.10;99.90;;;;;;5035365;28;20163;-40
2023/04/17 00:43:36;;;;;;;50.30;29.40;;;;;;;;;;5034251;28;20060;-40
2023/04/17 00:46:03;;;;;;;46.97;27.02;;;8.10;99.90;;;;;;5038926;28;20068;-40
2023/04/17 00:48:29;;;;;;;51.22;28.25;;;7.90;99.90;;;;;;5034446;28;20140;-40
2023/04/17 00:50:55;;;;;;;45.47;27.67;;;8.10;99.90;;;;;;5036851;28;20132;-39
2023/04/17 00:53:21;;;;;;;48.88;28.40;;;;;;;;;;5040963;28;20045;-39
2023/04/17 00:55:47;;;;;;;50.65;27.80;;;;;;;;;;5038963;28;20060;-40
2023/04/17 00:58:14;;;;;;;45.70;27.38;;;8.30;99.90;;;;;;5032353;28;20044;-40
2023/04/17 01:00:39;;;;;;;46.78;28.13;;;7.90;99.90;;;;;;5040315;28;20482;-40
2023/04/17 01:03:05;;;;;;;48.80;28.83;;;;;;;;;;5036437;28;20072;-39
2023/04/17 01:05:34;;;;;;;53.22;30.40;;;;;;;;;;5035983;28;20065;-39
2023/04/17 01:08:00;;;;;;;53.25;29.70;;;;;;;;;;5036617;28;20053;-39
2023/04/17 01:10:26;;;;;;;47.33;27.35;;;;;;;;;;5035793;28;20123;-41
2023/04/17 01:13:05;;;;;;;49.53;30.05;;;8.20;99.90;;;;;;5030842;28;20076;-40
2023/04/17 01:15:31;;;;;;;55.22;31.27;;;8.30;99.90;;;;;;5017440;28;20049;-40
2023/04/17 01:17:57;;;;;;;51.10;29.42;;;8.20;99.90;;;;;;5040098;28;20045;-40
2023/04/17 01:20:24;;;;;;;50.40;28.70;;;7.90;99.90;;;;;;5041222;28;20029;-39
2023/04/17 01:22:50;;;;;;;53.95;30.55;;;8.30;99.90;;;;;;5033834;28;20639;-39
2023/04/17 01:25:17;;;;;;;53.38;30.27;;;8.10;99.90;;;;;;5033997;28;20048;-40
2023/04/17 01:27:43;;;;;;;52.92;30.67;;;8.10;99.90;;;;;;5018295;28;20049;-39
2023/04/17 01:30:09;;;;;;;56.95;32.10;;;8.00;99.90;;;;;;5038299;28;20052;-40
2023/04/17 01:32:35;;;;;;;60.42;31.13;;;8.30;99.90;;;;;;5030692;28;20086;-40
2023/04/17 01:35:01;;;;;;;58.63;31.27;;;;;;;;;;5037311;28;20040;-39
2023/04/17 01:37:27;;;;;;;58.15;29.73;;;;;;;;;;5027808;28;20045;-40
2023/04/17 01:39:54;;;;;;;60.80;29.35;;;;;;;;;;5030239;28;20118;-40
2023/04/17 01:42:21;;;;;;;58.35;29.10;;;8.20;99.90;;;;;;5038000;28;20060;-40
2023/04/17 01:44:47;;;;;;;54.55;30.15;;;;;;;;;;5039286;28;20072;-40
2023/04/17 01:47:13;;;;;;;54.67;29.60;;;8.10;99.90;;;;;;5034392;28;20053;-40
2023/04/17 01:49:39;;;;;;;53.45;29.48;;;;;;;;;;5032275;28;20037;-40
2023/04/17 01:52:05;;;;;;;58.33;31.52;;;;;;;;;;5039062;28;20033;-39
2023/04/17 01:54:31;;;;;;;54.90;30.58;;;;;;;;;;5036382;28;20480;-39
2023/04/17 01:56:57;;;;;;;64.95;33.53;;;;;;;;;;5037027;28;20736;-39
2023/04/17 01:59:23;;;;;;;60.20;32.13;;;8.00;99.90;;;;;;5035526;28;20524;-40
2023/04/17 02:01:50;;;;;;;57.42;32.72;;;7.70;99.90;;;;;;5030244;28;20051;-40
2023/04/17 02:04:16;;;;;;;62.28;31.20;;;8.80;99.90;;;;;;5037773;28;20057;-40
2023/04/17 02:06:41;;;;;;;66.35;32.85;;;8.20;99.90;;;;;;5032931;28;20057;-40
2023/04/17 02:09:07;;;;;;;62.35;33.28;;;8.50;99.90;;;;;;5037955;28;20044;-39
2023/04/17 02:11:33;;;;;;;62.25;33.22;;;8.10;99.90;;;;;;5034062;28;20036;-40
2023/04/17 02:13:59;;;;;;;65.28;33.80;;;8.20;99.90;;;;;;5037520;28;20036;-40
2023/04/17 02:16:25;;;;;;;61.63;31.95;;;8.10;99.90;;;;;;5020970;28;20060;-40
2023/04/17 02:18:51;;;;;;;64.05;33.65;;;7.80;99.90;;;;;;5037800;28;20124;-40
2023/04/17 02:21:16;;;;;;;59.92;32.22;;;8.50;99.90;;;;;;5030131;28;20077;-40
2023/04/17 02:23:42;;;;;;;67.60;33.28;;;9.10;99.90;;;;;;5036740;28;20049;-40
2023/04/17 02:26:08;;;;;;;69.32;32.78;;;7.70;99.90;;;;;;5029807;28;20126;-39
2023/04/17 02:28:35;;;;;;;65.00;31.83;;;;;;;;;;5032570;28;20045;-40
2023/04/17 02:31:01;;;;;;;66.78;33.42;;;;;;;;;;5035534;28;20061;-39
2023/04/17 02:33:27;;;;;;;59.40;31.08;;;;;;;;;;5032375;28;20123;-40
2023/04/17 02:35:53;;;;;;;69.18;34.83;;;;;;;;;;5036592;28;20045;-40
2023/04/17 02:38:19;;;;;;;70.22;34.50;;;;;;;;;;5037830;28;20037;-40
2023/04/17 02:40:45;;;;;;;75.70;34.60;;;;;;;;;;5032745;28;20789;-40
2023/04/17 02:43:12;;;;;;;70.30;35.38;;;7.70;99.90;;;;;;5031004;28;20590;-41
2023/04/17 02:45:39;;;;;;;66.82;33.38;;;;;;;;;;5037037;28;20045;-41
2023/04/17 02:48:04;;;;;;;67.72;32.90;;;8.00;99.90;;;;;;5027844;28;20041;-39
2023/04/17 02:50:30;;;;;;;60.15;29.98;;;8.10;99.90;;;;;;5035811;28;20030;-40
2023/04/17 02:52:56;;;;;;;71.97;34.58;;;;;;;;;;5035131;28;20049;-40
2023/04/17 02:55:23;;;;;;;70.13;34.67;;;;;;;;;;5029581;28;20041;-40
2023/04/17 02:57:49;;;;;;;71.65;33.72;;;;;;;;;;5030471;28;20053;-39
2023/04/17 03:00:15;;;;;;;68.97;34.40;;;8.10;99.90;;;;;;5028955;28;20484;-39
2023/04/17 03:02:40;;;;;;;71.75;34.65;;;7.90;99.90;;;;;;5016697;28;20053;-39
2023/04/17 03:05:07;;;;;;;75.22;34.50;;;8.30;99.90;;;;;;5035786;28;20072;-40
2023/04/17 03:07:32;;;;;;;69.78;35.65;;;8.10;99.90;;;;;;5009939;28;20053;-39
2023/04/17 03:09:58;;;;;;;73.28;35.47;;;9.20;99.90;;;;;;5037230;28;20095;-40
2023/04/17 03:12:24;;;;;;;83.15;36.33;;;7.90;99.90;;;;;;5035986;28;20044;-40
2023/04/17 03:14:50;;;;;;;80.00;36.30;;;8.40;99.90;;;;;;5033298;28;20052;-40
2023/04/17 03:17:16;;;;;;;96.45;37.10;;;7.80;99.90;;;;;;5034452;28;20045;-39
2023/04/17 03:19:42;;;;;;;83.15;36.25;;;;;;;;;;5000541;28;20044;-40
2023/04/17 03:22:09;;;;;;;85.75;37.53;;;;;;;;;;5027392;28;20045;-39
2023/04/17 03:24:34;;;;;;;86.18;36.50;;;7.90;99.90;;;;;;5033104;28;20125;-40
2023/04/17 03:27:01;;;;;;;84.45;34.88;;;8.00;99.90;;;;;;5032583;28;20127;-39
2023/04/17 03:29:27;;;;;;;89.65;37.28;;;8.40;99.90;;;;;;5030605;28;20068;-39
2023/04/17 03:31:53;;;;;;;84.45;35.05;;;8.20;99.90;;;;;;5037926;28;20131;-40
2023/04/17 03:34:20;;;;;;;86.00;36.60;;;;;;;;;;5028342;28;20134;-40
2023/04/17 03:36:46;;;;;;;85.45;35.72;;;8.00;99.90;;;;;;5035599;28;20384;-40
2023/04/17 03:39:12;;;;;;;94.93;34.75;;;;;;;;;;5031235;28;20217;-39
2023/04/17 03:41:38;;;;;;;78.85;34.28;;;;;;;;;;5029212;28;20049;-40
2023/04/17 03:44:05;;;;;;;93.32;35.50;;;;;;;;;;5033475;28;20427;-39
2023/04/17 03:46:31;;;;;;;95.78;35.88;;;7.90;99.90;;;;;;5025820;28;20049;-39
2023/04/17 03:48:57;;;;;;;77.65;33.88;;;7.90;99.90;;;;;;5032828;28;20052;-40
2023/04/17 03:51:23;;;;;;;89.15;33.40;;;7.90;99.90;;;;;;5038632;28;20041;-39
2023/04/17 03:53:48;;;;;;;84.97;33.78;;;8.00;99.90;;;;;;5034072;28;20481;-39
2023/04/17 03:56:14;;;;;;;76.93;33.85;;;7.90;99.90;;;;;;5031851;28;20045;-39
2023/04/17 03:58:40;;;;;;;78.75;33.42;;;;;;;;;;5036312;28;20041;-39
2023/04/17 04:01:09;;;;;;;82.20;33.75;;;;;;;;;;5029125;28;20108;-40
2023/04/17 04:03:35;;;;;;;79.28;33.95;;;;;;;;;;5033664;28;20121;-40
2023/04/17 04:06:01;;;;;;;83.35;36.58;;;;;;;;;;5029423;28;20045;-39
2023/04/17 04:08:27;;;;;;;89.53;35.40;;;8.00;99.90;;;;;;5034884;28;20049;-41
2023/04/17 04:10:53;;;;;;;79.15;34.85;;;;;;;;;;5035390;28;20057;-40
2023/04/17 04:13:19;;;;;;;73.50;32.55;;;;;;;;;;5032314;28;20048;-39
2023/04/17 04:15:45;;;;;;;69.13;31.63;;;;;;;;;;5032775;28;20060;-39
2023/04/17 04:18:11;;;;;;;73.68;32.50;;;7.90;99.90;;;;;;5036027;28;20500;-39
2023/04/17 04:20:37;;;;;;;71.03;31.77;;;;;;;;;;5041834;28;20041;-39
2023/04/17 04:23:03;;;;;;;68.75;30.55;;;;;;;;;;5034669;28;20586;-39
2023/04/17 04:25:29;;;;;;;67.03;32.08;;;7.70;99.90;;;;;;5037982;28;20151;-39
2023/04/17 04:27:55;;;;;;;61.97;29.73;;;8.00;99.90;;;;;;5040286;28;20474;-39
2023/04/17 04:30:24;;;;;;;67.82;32.50;;;7.90;99.90;;;;;;5032988;28;20057;-39
2023/04/17 04:32:50;;;;;;;62.40;30.48;;;;;;;;;;5032447;28;20045;-39
2023/04/17 04:35:16;;;;;;;69.95;30.77;;;;;;;;;;5035597;28;20432;-39
2023/04/17 04:37:45;;;;;;;58.65;28.85;;;7.70;99.90;;;;;;5033431;28;20041;-39
2023/04/17 04:40:14;;;;;;;66.35;31.98;;;7.80;99.90;;;;;;5039707;28;20120;-39
2023/04/17 04:42:48;;;;;;;63.95;27.52;;;;;;;;;;5035516;28;20049;-39
2023/04/17 04:45:14;;;;;;;63.15;30.27;;;8.40;99.90;;;;;;5040301;28;20053;-40
2023/04/17 04:47:40;;;;;;;55.28;27.95;;;7.80;99.90;;;;;;5039960;28;20047;-39
2023/04/17 04:50:07;;;;;;;55.92;28.35;;;7.80;99.90;;;;;;5033121;28;20052;-40
2023/04/17 04:52:33;;;;;;;56.20;27.00;;;7.80;99.90;;;;;;5033558;28;20050;-39
2023/04/17 04:54:58;;;;;;;57.65;28.55;;;7.60;99.90;;;;;;5030872;28;20056;-40
2023/04/17 04:57:24;;;;;;;54.83;28.17;;;7.70;99.90;;;;;;5035856;28;20049;-39
2023/04/17 04:59:50;;;;;;;59.22;28.00;;;7.70;99.90;;;;;;5037450;28;20136;-39
2023/04/17 05:02:16;;;;;;;59.45;29.83;;;;;;;;;;5035492;28;20463;-40
2023/04/17 05:04:42;;;;;;;58.17;28.70;;;;;;;;;;5035978;28;20061;-41
2023/04/17 05:07:08;;;;;;;56.83;27.73;;;;;;;;;;5030762;28;20100;-39
2023/04/17 05:09:34;;;;;;;60.50;28.67;;;;;;;;;;5035041;28;20061;-40
2023/04/17 05:12:00;;;;;;;59.53;28.45;;;7.80;99.90;;;;;;5040274;28;20043;-39
2023/04/17 05:14:26;;;;;;;56.30;27.20;;;;;;;;;;5034566;28;20053;-41
2023/04/17 05:16:54;;;;;;;57.28;26.75;;;;;;;;;;5031965;28;20423;-40
2023/04/17 05:19:20;;;;;;;56.97;28.17;;;7.70;99.90;;;;;;5039725;28;20060;-39
2023/04/17 05:21:46;;;;;;;55.72;27.67;;;;;;;;;;5015282;28;20052;-40
2023/04/17 05:24:12;;;;;;;55.83;27.10;;;;;;;;;;5030005;28;20042;-41
2023/04/17 05:26:38;;;;;;;58.63;26.88;;;7.80;99.90;;;;;;5038482;28;20076;-40
2023/04/17 05:29:04;;;;;;;63.70;28.05;;;;;;;;;;5035184;28;20447;-40
2023/04/17 05:31:30;;;;;;;49.08;25.88;;;;;;;;;;5034598;28;20086;-40
2023/04/17 05:33:56;;;;;;;48.15;26.17;;;;;;;;;;5034752;28;20040;-40
2023/04/17 05:36:22;;;;;;;51.65;26.38;;;;;;;;;;5020542;28;20492;-40
2023/04/17 05:38:48;;;;;;;69.57;29.50;;;;;;;;;;5037833;28;20041;-39
2023/04/17 05:41:14;;;;;;;55.25;26.45;;;7.90;99.90;;;;;;5037705;28;20047;-40
2023/04/17 05:43:41;;;;;;;52.92;27.65;;;;;;;;;;5033474;28;20045;-39
2023/04/17 05:46:07;;;;;;;56.20;28.50;;;;;;;;;;5036956;28;20056;-39
2023/04/17 05:48:33;;;;;;;49.65;26.70;;;;;;;;;;5032862;28;20037;-39
2023/04/17 05:50:59;;;;;;;54.72;27.55;;;;;;;;;;5032375;28;20048;-39
2023/04/17 05:53:25;;;;;;;60.03;28.70;;;7.80;99.90;;;;;;5034642;28;20073;-39
2023/04/17 05:55:51;;;;;;;51.13;26.73;;;;;;;;;;5033583;28;20080;-39
2023/04/17 05:58:17;;;;;;;57.70;28.50;;;;;;;;;;5034701;28;20053;-40
2023/04/17 06:00:43;;;;;;;62.40;29.58;;;8.00;99.90;;;;;;5038520;28;20044;-39
2023/04/17 06:03:09;;;;;;;81.97;29.92;;;;;;;;;;5038442;28;20037;-39
2023/04/17 06:05:35;;;;;;;59.65;28.60;;;8.20;99.90;;;;;;5032117;28;20056;-39
2023/04/17 06:08:01;;;;;;;60.15;28.33;;;;;;;;;;5037168;28;20095;-39
2023/04/17 06:10:27;;;;;;;52.38;27.52;;;8.20;99.90;;;;;;5031050;28;20041;-39
2023/04/17 06:12:53;;;;;;;57.15;28.13;;;;;;;;;;5039610;28;20115;-39
2023/04/17 06:15:19;;;;;;;53.03;28.80;;;8.40;99.90;;;;;;5037035;28;20056;-39
2023/04/17 06:17:45;;;;;;;71.93;32.05;;;;;;;;;;5036716;28;20487;-40
2023/04/17 06:20:11;;;;;;;56.40;29.60;;;8.60;99.90;;;;;;5037707;28;20037;-40
2023/04/17 06:22:38;;;;;;;54.83;29.23;;;8.40;99.90;;;;;;5033004;28;20114;-40
2023/04/17 06:25:04;;;;;;;63.22;30.17;;;;;;;;;;5033297;28;20032;-39
2023/04/17 06:27:30;;;;;;;60.47;31.15;;;8.30;99.90;;;;;;5027562;28;20049;-40
2023/04/17 06:29:56;;;;;;;52.88;30.25;;;;;;;;;;5026614;28;20048;-39
2023/04/17 06:32:22;;;;;;;59.38;31.40;;;;;;;;;;5041160;28;20041;-39
2023/04/17 06:34:47;;;;;;;53.90;29.60;;;8.70;99.90;;;;;;5031279;28;20056;-40
2023/04/17 06:37:14;;;;;;;57.70;30.83;;;;;;;;;;5036239;28;20089;-40
2023/04/17 06:39:40;;;;;;;58.53;31.40;;;;;;;;;;5034915;28;20041;-40
2023/04/17 06:42:06;;;;;;;62.25;32.63;;;;;;;;;;5036803;28;20041;-40
2023/04/17 06:44:32;;;;;;;57.83;32.85;;;;;;;;;;5044214;28;20140;-40
2023/04/17 06:47:02;;;;;;;50.42;29.92;;;9.50;99.90;;;;;;5026676;28;20376;-40
2023/04/17 06:49:28;;;;;;;54.42;31.85;;;;;;;;;;5013287;28;20372;-40
2023/04/17 06:51:55;;;;;;;53.95;32.22;;;;;;;;;;5036796;28;20038;-40
2023/04/17 06:54:20;;;;;;;54.88;32.97;;;9.70;99.90;;;;;;5033315;28;20045;-43
2023/04/17 06:56:46;;;;;;;53.92;30.88;;;;;;;;;;5028715;28;20041;-40
2023/04/17 06:59:12;;;;;;;53.08;32.25;;;9.40;99.90;;;;;;5028718;28;20037;-40
2023/04/17 07:01:39;;;;;;;55.85;33.25;;;9.60;99.90;;;;;;5033862;28;20106;-40
2023/04/17 07:04:05;;;;;;;50.33;30.40;;;9.80;99.90;;;;;;5011528;28;20057;-42
2023/04/17 07:06:33;;;;;;;45.88;29.77;;;10.30;99.90;;;;;;5035066;28;20053;-40
2023/04/17 07:09:00;;;;;;;48.90;31.13;;;10.20;99.90;;;;;;5036891;28;20562;-41
2023/04/17 07:11:26;;;;;;;46.97;30.52;;;;;;;;;;5039731;28;20044;-40
2023/04/17 07:13:52;;;;;;;44.30;30.48;;;10.10;99.90;;;;;;5034361;28;20076;-40
2023/04/17 07:16:17;;;;;;;44.95;31.08;;;11.20;99.90;;;;;;5033504;28;20080;-40
2023/04/17 07:18:43;;;;;;;39.83;28.25;;;11.00;99.90;;;;;;5034073;28;20513;-40
2023/04/17 07:21:09;;;;;;;41.63;27.50;;;11.10;99.90;;;;;;5026656;28;20550;-41
2023/04/17 07:23:34;;;;;;;35.80;27.75;;;11.70;99.90;;;;;;5030808;28;20037;-41
2023/04/17 07:26:00;;;;;;;35.75;27.80;;;11.70;99.90;;;;;;5036427;28;20037;-40
2023/04/17 07:28:26;;;;;;;34.60;27.10;;;;;;;;;;5039920;28;20042;-40
2023/04/17 07:30:53;;;;;;;35.72;26.98;;;12.60;99.90;;;;;;5028886;28;20107;-41
2023/04/17 07:33:20;;;;;;;32.95;24.70;;;12.80;99.90;;;;;;5029563;28;20045;-41
2023/04/17 07:35:46;;;;;;;33.38;26.58;;;13.10;99.90;;;;;;5029215;28;20108;-42
2023/04/17 07:38:11;;;;;;;29.80;25.17;;;13.30;99.90;;;;;;5033089;28;20037;-40
2023/04/17 07:40:38;;;;;;;31.27;24.60;;;13.50;99.90;;;;;;5026217;28;20088;-40
2023/04/17 07:43:04;;;;;;;32.42;23.83;;;13.50;99.90;;;;;;5031980;28;20048;-41
2023/04/17 07:45:30;;;;;;;28.40;23.25;;;13.70;99.90;;;;;;5025561;28;20044;-40
2023/04/17 07:47:56;;;;;;;29.45;22.88;;;;;;;;;;5026296;28;20108;-41
2023/04/17 07:50:22;;;;;;;26.23;22.40;;;14.10;99.90;;;;;;5018179;28;20399;-41
2023/04/17 07:52:48;;;;;;;28.98;21.95;;;14.20;99.90;;;;;;5029055;28;20055;-41
2023/04/17 07:55:14;;;;;;;27.23;22.30;;;14.20;99.90;;;;;;5036225;28;20036;-41
2023/04/17 07:57:41;;;;;;;26.85;20.88;;;14.40;99.90;;;;;;5036759;28;20045;-40
2023/04/17 08:00:09;;;;;;;22.92;20.13;;;14.10;99.90;;;;;;5038711;28;20049;-40
2023/04/17 08:02:35;;;;;;;22.50;20.10;;;14.50;99.90;;;;;;5032712;28;20053;-40
2023/04/17 08:05:02;;;;;;;27.83;20.65;;;14.90;99.90;;;;;;5034470;28;20057;-41
2023/04/17 08:07:27;;;;;;;25.80;19.73;;;14.20;99.90;;;;;;5031115;28;20522;-41
2023/04/17 08:09:53;;;;;;;23.50;20.80;;;14.50;99.90;;;;;;5035638;28;20107;-40
2023/04/17 08:12:18;;;;;;;24.77;19.58;;;14.70;99.90;;;;;;5029200;28;20049;-40
2023/04/17 08:14:44;;;;;;;25.35;18.75;;;14.90;99.90;;;;;;5033953;28;20033;-41
2023/04/17 08:17:10;;;;;;;22.10;17.38;;;15.20;99.90;;;;;;5033764;28;20043;-41
2023/04/17 08:19:35;;;;;;;21.58;19.13;;;14.50;99.90;;;;;;5027041;28;20048;-41
2023/04/17 08:22:04;;;;;;;22.35;18.17;;;15.60;99.90;;;;;;5031833;28;20732;-41
2023/04/17 08:24:30;;;;;;;20.85;17.90;;;15.60;99.90;;;;;;5035338;28;20113;-43
2023/04/17 08:26:57;;;;;;;23.20;18.65;;;15.20;99.90;;;;;;5002923;28;20053;-42
2023/04/17 08:29:23;;;;;;;19.85;17.25;;;15.60;99.90;;;;;;5024795;28;20128;-43
2023/04/17 08:32:36;;;;;;;22.95;17.70;;;15.70;99.90;;;;;;5018722;28;20037;-42
2023/04/17 08:38:23;;;;;;;18.88;15.82;;;15.90;99.90;;;;;;5022544;28;19927;-41
2023/04/17 08:40:51;;;;;;;20.23;16.50;;;16.00;99.90;;;;;;5027727;28;20029;-41
2023/04/17 08:43:18;;;;;;;20.17;17.42;;;16.10;99.90;;;;;;5040619;28;20140;-41
2023/04/17 08:45:54;;;;;;;17.08;15.25;;;16.30;99.90;;;;;;5033446;28;20057;-42
2023/04/17 08:48:21;;;;;;;18.77;15.63;;;16.50;99.90;;;;;;5031035;28;20048;-41
2023/04/17 08:50:48;;;;;;;18.25;15.57;;;16.70;99.90;;;;;;5033300;28;20059;-41
2023/04/17 08:53:15;;;;;;;17.90;15.88;;;16.80;99.90;;;;;;5039666;28;20056;-42
2023/04/17 08:55:42;;;;;;;19.20;15.18;;;16.90;99.90;;;;;;5035009;28;20076;-43
2023/04/17 08:58:08;;;;;;;18.30;15.13;;;17.10;99.90;;;;;;5038323;28;20044;-41
2023/04/17 09:00:35;;;;;;;19.33;14.85;;;17.20;99.90;;;;;;5037739;28;20045;-42
2023/04/17 09:03:04;;;;;;;17.40;15.45;;;17.50;99.60;;;;;;5035300;28;20491;-42
2023/04/17 09:05:35;;;;;;;17.63;15.43;;;17.70;99.10;;;;;;5047361;28;20554;-42
2023/04/17 09:08:22;;;;;;;15.77;14.07;;;17.80;98.30;;;;;;5032943;28;20369;-42
2023/04/17 09:10:53;;;;;;;19.70;13.77;;;18.00;97.70;;;;;;5029638;28;20036;-42
2023/04/17 09:13:28;;;;;;;17.85;14.15;;;18.20;98.10;;;;;;5029114;28;20041;-44
2023/04/17 09:16:08;;;;;;;19.38;14.85;;;18.20;97.20;;;;;;5032934;28;20049;-42
2023/04/17 09:33:07;;;;;;;18.45;12.70;;;18.30;94.90;;;;;;4945312;28;20178;-45
2023/04/17 09:39:36;;;;;;;16.85;13.55;;;18.30;93.60;;;;;;4944601;28;20194;-41
2023/04/17 09:42:03;;;;;;;15.65;12.63;;;18.20;93.90;;;;;;4952190;28;20046;-41
2023/04/17 09:44:29;;;;;;;16.50;12.45;;;18.30;96.70;;;;;;5031492;28;20060;-41
2023/04/17 09:46:55;;;;;;;14.43;12.65;;;19.00;98.50;;;;;;5037826;28;20107;-43
2023/04/17 09:49:32;;;;;;;15.98;12.60;;;18.80;93.20;;;;;;5039858;28;20091;-43
2023/04/17 09:51:58;;;;;;;13.75;11.73;;;18.80;97.90;;;;;;5030733;28;20092;-45
2023/04/17 09:54:25;;;;;;;16.60;11.90;;;18.80;92.60;;;;;;5035272;28;20061;-42
2023/04/17 09:56:54;;;;;;;14.00;12.48;;;18.60;93.60;;;;;;5034330;28;20148;-45
2023/04/17 09:59:23;;;;;;;14.68;13.02;;;;;;;;;;5025144;28;20450;-43
2023/04/17 10:01:49;;;;;;;15.63;12.73;;;18.90;91.10;;;;;;5012771;28;20170;-45
2023/04/17 10:04:15;;;;;;;14.43;12.68;;;;;;;;;;5023422;28;20852;-46
2023/04/17 10:06:41;;;;;;;14.25;12.68;;;18.60;90.50;;;;;;5026749;28;20079;-45
2023/04/17 10:09:07;;;;;;;15.60;11.98;;;18.60;91.00;;;;;;5034490;28;20045;-48
2023/04/17 10:11:38;;;;;;;14.02;12.30;;;18.70;91.20;;;;;;5036908;28;20047;-45
2023/04/17 10:14:37;;;;;;;16.20;12.15;;;18.60;95.80;;;;;;5029656;28;20168;-43
2023/04/17 10:45:56;;;;;;;12.82;10.43;;;18.20;88.60;;;;;;5001681;28;20536;-43
2023/04/17 10:48:35;;;;;;;14.05;12.25;;;18.00;87.00;;;;;;5030379;28;20061;-43
2023/04/17 10:51:23;;;;;;;16.50;11.60;;;17.90;94.00;;;;;;5029989;28;20565;-43
2023/04/17 10:53:52;;;;;;;19.52;12.63;;;17.70;87.30;;;;;;5014564;28;20048;-44
2023/04/17 10:56:25;;;;;;;13.95;11.00;;;17.70;88.10;;;;;;5028872;28;20395;-42
2023/04/17 10:58:58;;;;;;;12.43;11.20;;;17.70;94.20;;;;;;5028997;28;20041;-41
2023/04/17 11:01:36;;;;;;;13.88;11.15;;;17.90;95.60;;;;;;5006667;28;20155;-41
2023/04/17 11:04:03;;;;;;;14.32;9.73;;;17.70;87.50;;;;;;5037359;28;20036;-45
2023/04/17 11:06:36;;;;;;;12.18;10.30;;;17.60;86.90;;;;;;5016445;28;20056;-43
2023/04/17 11:09:06;;;;;;;13.05;9.73;;;17.60;89.50;;;;;;5032000;28;20099;-44
2023/04/17 11:11:42;;;;;;;13.23;10.32;;;17.40;89.00;;;;;;5036608;28;20041;-44
2023/04/17 11:14:19;;;;;;;13.70;10.32;;;17.40;89.60;;;;;;5013365;28;20038;-45
2023/04/17 11:16:48;;;;;;;13.23;10.50;;;17.30;91.20;;;;;;5026877;28;20048;-44
2023/04/17 11:19:17;;;;;;;14.48;12.32;;;17.70;93.50;;;;;;5029065;28;20045;-43
2023/04/17 11:21:45;;;;;;;14.15;11.20;;;17.70;90.80;;;;;;5007020;28;20132;-45
2023/04/17 11:24:11;;;;;;;14.90;11.07;;;;;;;;;;5039023;28;20495;-45
2023/04/17 11:30:53;;;;;;;20.02;11.38;;;17.80;84.50;;;;;;5011147;28;20044;-44
2023/04/17 11:37:01;;;;;;;13.77;10.32;;;17.90;86.70;;;;;;5034253;28;20076;-44
2023/04/17 11:39:34;;;;;;;13.43;11.82;;;18.00;86.50;;;;;;4999630;28;20450;-45
2023/04/17 11:42:02;;;;;;;13.13;10.90;;;18.00;87.50;;;;;;5013477;28;20039;-43
2023/04/17 11:44:28;;;;;;;12.25;10.90;;;18.00;85.30;;;;;;5033423;28;20499;-44
2023/04/17 11:46:57;;;;;;;13.20;11.70;;;17.80;84.90;;;;;;5029084;28;20897;-42
2023/04/17 11:49:25;;;;;;;15.30;11.50;;;17.80;85.50;;;;;;5028581;28;20570;-46
2023/04/17 11:51:51;;;;;;;13.23;11.82;;;;;;;;;;5043157;28;20033;-51
2023/04/17 11:58:17;;;;;;;12.82;10.95;;;17.50;84.20;;;;;;5016745;28;20442;-53
2023/04/17 12:00:43;;;;;;;13.77;11.13;;;17.40;80.20;;;;;;5019522;28;20037;-49
2023/04/17 12:03:34;;;;;;;13.75;11.48;;;17.30;83.90;;;;;;5030911;28;20450;-54
2023/04/17 12:06:05;;;;;;;17.10;11.25;;;17.40;93.10;;;;;;5033678;28;20053;-53
2023/04/17 12:09:26;;;;;;;15.25;11.02;;;17.40;84.90;;;;;;5030998;28;20056;-50
2023/04/17 12:19:47;;;;;;;13.63;10.13;;;17.10;85.40;;;;;;4939754;28;20053;-52
2023/04/17 12:25:55;;;;;;;14.13;10.35;;;17.00;92.80;;;;;;4935701;28;20093;-46
2023/04/17 12:32:05;;;;;;;14.32;12.20;;;16.60;84.80;;;;;;4918525;28;20033;-47
2023/04/17 12:34:57;;;;;;;17.25;12.02;;;16.50;86.40;;;;;;4945674;28;20062;-46
2023/04/17 12:42:00;;;;;;;12.48;10.70;;;16.40;95.60;;;;;;4909771;28;20223;-48
2023/04/17 12:59:09;;;;;;;23.27;11.82;;;16.70;82.60;;;;;;4897172;29;20074;-45
2023/04/17 13:01:35;;;;;;;16.48;11.80;;;;;;;;;;4966990;28;20050;-45
2023/04/17 13:04:01;;;;;;;16.15;11.07;;;16.80;86.10;;;;;;4976384;28;20042;-45
2023/04/17 13:06:27;;;;;;;15.35;10.10;;;16.70;91.10;;;;;;5027443;28;20064;-45
2023/04/17 13:08:52;;;;;;;15.57;11.52;;;16.80;99.00;;;;;;5034925;28;20055;-45
2023/04/17 13:11:18;;;;;;;15.38;12.27;;;16.80;92.40;;;;;;5031256;28;20046;-45
2023/04/17 13:13:44;;;;;;;13.48;10.77;;;16.80;91.30;;;;;;5036800;28;20047;-44
2023/04/17 13:16:10;;;;;;;13.95;12.38;;;16.90;91.10;;;;;;5033214;28;20033;-44
2023/04/17 13:18:36;;;;;;;17.10;10.77;;;17.00;90.00;;;;;;5035748;28;20050;-46
2023/04/17 13:21:02;;;;;;;12.02;9.73;;;17.10;98.00;;;;;;5038825;28;20049;-45
2023/04/17 13:23:28;;;;;;;16.23;11.07;;;16.90;90.30;;;;;;5035937;28;20041;-46
2023/04/17 13:25:54;;;;;;;15.82;10.68;;;17.00;90.20;;;;;;5033557;28;20049;-46
2023/04/17 13:28:19;;;;;;;14.30;11.30;;;17.00;90.10;;;;;;5030514;28;20099;-45
2023/04/17 13:30:45;;;;;;;14.07;10.50;;;17.00;90.30;;;;;;5027877;28;20834;-44
2023/04/17 13:33:51;;;;;;;13.50;11.32;;;16.90;89.70;;;;;;5026488;28;20094;-45
2023/04/17 13:36:35;;;;;;;11.88;9.02;;;16.80;89.80;;;;;;5027789;28;20725;-45
2023/04/17 13:39:01;;;;;;;13.57;10.32;;;16.60;98.20;;;;;;5031737;28;21053;-47
2023/04/17 13:41:26;;;;;;;13.10;10.10;;;17.00;99.20;;;;;;5037476;28;20057;-45
2023/04/17 13:43:54;;;;;;;13.82;10.32;;;16.40;99.90;;;;;;5035814;28;20030;-46
2023/04/17 13:46:20;;;;;;;12.57;9.48;;;16.80;91.40;;;;;;5021190;28;20656;-45
2023/04/17 13:48:46;;;;;;;13.70;10.07;;;16.80;90.20;;;;;;5032758;28;20136;-46
2023/04/17 13:51:13;;;;;;;15.50;11.60;;;;;;;;;;5032649;28;20044;-45
2023/04/17 13:53:38;;;;;;;13.07;11.18;;;17.30;91.20;;;;;;5034682;28;20132;-45
2023/04/17 13:56:05;;;;;;;12.27;10.13;;;;;;;;;;5038963;28;20125;-45
2023/04/17 13:58:32;;;;;;;12.95;9.77;;;16.90;96.40;;;;;;5031661;28;20051;-45
2023/04/17 14:00:58;;;;;;;12.23;9.63;;;16.80;98.00;;;;;;5030456;28;20033;-46
2023/04/17 14:03:23;;;;;;;11.40;9.10;;;16.70;90.70;;;;;;5037441;28;20040;-46
2023/04/17 14:05:49;;;;;;;14.25;10.13;;;16.50;87.40;;;;;;5033228;28;20095;-46
2023/04/17 14:08:15;;;;;;;12.50;9.52;;;16.20;96.90;;;;;;5040906;28;20804;-46
2023/04/17 14:10:41;;;;;;;12.02;9.50;;;;;;;;;;5033519;28;20045;-45
2023/04/17 14:13:07;;;;;;;12.77;9.45;;;16.40;89.10;;;;;;5037661;28;20052;-45
2023/04/17 14:15:32;;;;;;;13.23;8.90;;;16.40;89.10;;;;;;5038264;28;20059;-46
2023/04/17 14:17:58;;;;;;;13.82;9.65;;;16.40;91.30;;;;;;5036475;28;20042;-45
2023/04/17 14:20:24;;;;;;;13.13;10.45;;;;;;;;;;5010976;28;20152;-46
2023/04/17 14:22:51;;;;;;;12.07;10.15;;;16.30;91.40;;;;;;5026609;28;20483;-45
2023/04/17 14:25:17;;;;;;;13.77;9.95;;;16.10;97.00;;;;;;5031737;28;20523;-46
2023/04/17 14:27:43;;;;;;;10.98;8.40;;;16.20;88.50;;;;;;5033513;28;20049;-48
2023/04/17 14:30:09;;;;;;;11.70;8.73;;;16.10;87.20;;;;;;5031605;28;20077;-45
2023/04/17 14:32:37;;;;;;;9.38;8.07;;;16.00;85.50;;;;;;5036002;28;20132;-46
2023/04/17 14:35:03;;;;;;;10.93;7.97;;;16.00;85.80;;;;;;5029932;28;20488;-47
2023/04/17 14:37:29;;;;;;;7.55;6.03;;;15.80;83.60;;;;;;5032861;28;20510;-46
2023/04/17 14:39:55;;;;;;;10.38;6.63;;;16.00;83.90;;;;;;5036334;28;20037;-45